Tweed New Haven Airport New Haven US
ICAO: KHVN
IATA: HVN
Category: Medium
Scheduled Services: Yes

Elevation: 12 ft
TransAlt. 18000 ft.

Airport Communications:
NEW YORK APP/DEP:124.075
ATIS:133.65
CTAF:124.8
GND:121.7
BRIDGEPORT RDO:109.8
NEW HAVEN TWR:124.8
UNICOM:122.95

KHVN Zoom In..

Runways:

(A) RW 02 length 5600 ft width 150 ft
ILS 109.10 / hdg 16

(B) RW 14 length 3626 ft width 100 ft
---- / hdg 144

(C) RW 20 length 5600 ft width 150 ft
---- / hdg 196

(D) RW 32 length 3626 ft width 100 ft
---- / hdg 324

Location; KHVN
Day. 26 / Time. 13.53 Zulu
* Altimeter: 29.81
* Temperature: 23° c. 73.4°f.
* Wind from: 220° Speed 12 kn.
Dewpoint: 18° c.
Visibility: 10 Statute Miles.
Clouds: Scattered 25000 ft.

KHVN 261353Z 22012KT 10SM SCT250 23/18 A2981 RMK AO2 SLP093 T02330183


Wind From 220°
Speed 12 kn.

 
 
jpsmedia.com for Web Design SOUNDCLOUD worldairports.se 2018   terms of use